WetterOnline ( https://www.wetteronline.de )

Wetter aktuell Marktheidenfeld

Aktuelles Wetter: Neuhütten/Spessart (340m)

6-stündlich | Neueste Meldungen
Ortszeit Temperatur Wetter
Sa, 16.01. 13:00 -2.5° C bedeckt
Sa, 16.01. 7:00 -3.0° C bedeckt
Sa, 16.01. 1:00 -1.8° C bedeckt
Fr, 15.01. 19:00 -1.4° C bedeckt
Fr, 15.01. 13:00 -1.8° C bewölkt
Fr, 15.01. 7:00 -6.8° C wolkenlos
Fr, 15.01. 1:00 -3.1° C leicht bewölkt
Do, 14.01. 19:00 -1.3° C bedeckt
Ortszeit Temperatur Wetter
Sa, 16.01. 16:30 -2.8° C bedeckt
Sa, 16.01. 16:20 -2.8° C bedeckt
Sa, 16.01. 16:10 -2.7° C bedeckt
Sa, 16.01. 16:00 -2.7° C bedeckt
Sa, 16.01. 15:50 -2.7° C bedeckt
Sa, 16.01. 15:40 -2.7° C bedeckt
Sa, 16.01. 15:30 -2.6° C bedeckt
Sa, 16.01. 15:00 -2.5° C bedeckt
Sa, 16.01. 14:30 -2.4° C bedeckt
Sa, 16.01. 14:00 -2.5° C bedeckt
Sa, 16.01. 13:30 -2.4° C bedeckt
Ortszeit Relative Feuchte Sichtweite
Sa, 16.01. 13:00 62% 45 km
Sa, 16.01. 7:00 80% 30 km
Sa, 16.01. 1:00 88% 17 km
Fr, 15.01. 19:00 87% 21 km
Fr, 15.01. 13:00 79% 24 km
Fr, 15.01. 7:00 97% 30 km
Fr, 15.01. 1:00 85% 55 km
Do, 14.01. 19:00 89% 29 km
Ortszeit Relative Feuchte Sichtweite
Sa, 16.01. 16:30 69% 35 km
Sa, 16.01. 16:20 69% -
Sa, 16.01. 16:10 69% -
Sa, 16.01. 16:00 69% 35 km
Sa, 16.01. 15:50 69% -
Sa, 16.01. 15:40 69% -
Sa, 16.01. 15:30 66% 40 km
Sa, 16.01. 15:00 62% 45 km
Sa, 16.01. 14:30 60% 55 km
Sa, 16.01. 14:00 61% 60 km
Sa, 16.01. 13:30 61% 60 km
Ortszeit Niederschlagsmenge Niederschlagsart
Sa, 16.01. 13:00 0.1 l/m2 in 6 Std. Schnee
Sa, 16.01. 7:00 0.1 l/m2 in 12 Std. Schnee
Sa, 16.01. 1:00 0.1 l/m2 in 6 Std. Schnee, Sprühregen
Fr, 15.01. 19:00 0.1 l/m2 in 12 Std. Schnee
Fr, 15.01. 13:00 0.1 l/m2 in 6 Std. Schnee
Fr, 15.01. 7:00 0.0 l/m2 in 12 Std. -
Fr, 15.01. 1:00 0.0 l/m2 in 6 Std. -
Do, 14.01. 19:00 0.0 l/m2 in 12 Std. -
Ortszeit Niederschlagsmenge Niederschlagsart
Sa, 16.01. 16:30 0.0 l/m2 in 1 Std. -
Sa, 16.01. 16:20 keine Meldung -
Sa, 16.01. 16:10 keine Meldung -
Sa, 16.01. 16:00 0.0 l/m2 in 1 Std. -
Sa, 16.01. 15:50 keine Meldung -
Sa, 16.01. 15:40 keine Meldung -
Sa, 16.01. 15:30 0.0 l/m2 in 1 Std. -
Sa, 16.01. 15:00 0.0 l/m2 in 1 Std. -
Sa, 16.01. 14:30 0.0 l/m2 in 1 Std. -
Sa, 16.01. 14:00 0.0 l/m2 in 1 Std. -
Sa, 16.01. 13:30 0.0 l/m2 in 1 Std. -
Ortszeit Stärke Spitze Richtung
km/h Bft. km/h Grad Sektor
Sa, 16.01. 13:00 7 2 19 270° W
Sa, 16.01. 7:00 4 1 18 300° NW
Sa, 16.01. 1:00 6 1 11 300° NW
Fr, 15.01. 19:00 4 1 22 330° NW
Fr, 15.01. 13:00 0 0 7 - -
Fr, 15.01. 7:00 4 1 7 260° W
Fr, 15.01. 1:00 6 1 20 80° O
Do, 14.01. 19:00 7 2 11 90° O
Ortszeit Stärke Spitze Richtung
km/h Bft. km/h Grad Sektor
Sa, 16.01. 16:30 7 2 14 280° W
Sa, 16.01. 16:20 7 2 - 280° W
Sa, 16.01. 16:10 7 2 - 280° W
Sa, 16.01. 16:00 9 2 19 280° W
Sa, 16.01. 15:50 9 2 - 280° W
Sa, 16.01. 15:40 11 2 - 270° W
Sa, 16.01. 15:30 11 2 18 260° W
Sa, 16.01. 15:00 7 2 14 270° W
Sa, 16.01. 14:30 7 2 14 270° W
Sa, 16.01. 14:00 7 2 18 260° W
Sa, 16.01. 13:30 6 1 17 280° W
Ortszeit Untergrenze Bedeckung Gattung
total tief tief mittel hoch
Sa, 16.01. 13:00 810 m 8/8 8/8 - - -
Sa, 16.01. 7:00 1020 m 8/8 8/8 - - -
Sa, 16.01. 1:00 960 m 8/8 8/8 - - -
Fr, 15.01. 19:00 1470 m 8/8 8/8 - - -
Fr, 15.01. 13:00 1110 m 7/8 7/8 - - -
Fr, 15.01. 7:00 9000 m 0/8 0/8 - - -
Fr, 15.01. 1:00 9000 m 5/8 0/8 - - -
Do, 14.01. 19:00 870 m 8/8 8/8 - - -
Ortszeit Bedeckungsgrad in Achtel und Wolkenuntergrenze
Sa, 16.01. 16:30 8(630m)
Sa, 16.01. 16:20 8(630m)
Sa, 16.01. 16:10 8(630m)
Sa, 16.01. 16:00 8(630m)
Sa, 16.01. 15:50 8(630m)
Sa, 16.01. 15:40 8(660m)
Sa, 16.01. 15:30 8(750m)
Sa, 16.01. 15:00 2(600m) 8(840m)
Sa, 16.01. 14:30 8(870m)
Sa, 16.01. 14:00 8(840m)
Sa, 16.01. 13:30 8(810m)
Ortszeit Luftdruck NN (hPa) Tendenz (hPa in 3 Std.)
Sa, 16.01. 13:00 1027 - 1,3
Sa, 16.01. 7:00 1029 + 0,2
Sa, 16.01. 1:00 1029 + 0,4
Fr, 15.01. 19:00 1028 + 1,4
Fr, 15.01. 13:00 1026 + 1,0
Fr, 15.01. 7:00 1024 + 1,6
Fr, 15.01. 1:00 1021 - 0,2
Do, 14.01. 19:00 1021 + 0,1
Ortszeit Luftdruck NN (hPa) Tendenz (hPa in 3 Std.)
Sa, 16.01. 16:30 1025 - 1,6
Sa, 16.01. 16:20 1025 keine Meldung
Sa, 16.01. 16:10 1025 keine Meldung
Sa, 16.01. 16:00 1026 - 1,5
Sa, 16.01. 15:50 1026 keine Meldung
Sa, 16.01. 15:40 1026 keine Meldung
Sa, 16.01. 15:30 1026 - 1,7
Sa, 16.01. 15:00 1026 - 1,9
Sa, 16.01. 14:30 1026 - 2,0
Sa, 16.01. 14:00 1027 - 2,1
Sa, 16.01. 13:30 1027 - 1,5
Ortszeit Schneehöhe (cm)
Sa, 16.01. 13:00 7
Sa, 16.01. 7:00 7
Sa, 16.01. 1:00 7
Fr, 15.01. 19:00 7
Fr, 15.01. 13:00 7
Fr, 15.01. 7:00 7
Fr, 15.01. 1:00 7
Do, 14.01. 19:00 7
Ortszeit Schneehöhe (cm)
Sa, 16.01. 16:30 7
Sa, 16.01. 16:20 7
Sa, 16.01. 16:10 7
Sa, 16.01. 16:00 7
Sa, 16.01. 15:50 7
Sa, 16.01. 15:40 7
Sa, 16.01. 15:30 7
Sa, 16.01. 15:00 7
Sa, 16.01. 14:30 7
Sa, 16.01. 14:00 7
Sa, 16.01. 13:30 7
Link zu dieser Seite / Seite empfehlen

Das Wetter in ...